Time;durP1;ratioP1;P1;durP2;ratioP2;P2;SDS_P1;SDS_P2;PMS_P1;PMS_P2;Temp;Humidity;BMP_temperature;BMP_pressure;BME280_temperature;BME280_humidity;BME280_pressure;Samples;Min_cycle;Max_cycle;Signal;HPM_P1;HPM_P2
2021/12/06 00:01:47;;;;;;;20.65;18.73;;;;;;;;;;4969241;28;20034;-72
2021/12/06 00:04:17;;;;;;;21.58;19.52;;;;;;;;;;4974187;28;20070;-72
2021/12/06 00:06:46;;;;;;;22.77;20.35;;;;;;;;;;4969582;28;20082;-72
2021/12/06 00:09:16;;;;;;;24.38;21.90;;;;;;;;;;4971947;28;20078;-75
2021/12/06 00:11:42;;;;;;;23.60;21.13;;;;;;;;;;4972650;28;20030;-72
2021/12/06 00:14:07;;;;;;;24.80;22.15;;;;;;;;;;4976883;28;20042;-72
2021/12/06 00:16:33;;;;;;;26.52;21.92;;;;;;;;;;4983320;28;20034;-72
2021/12/06 00:18:59;;;;;;;23.52;21.13;;;;;;;;;;4978433;28;20395;-72
2021/12/06 00:21:25;;;;;;;25.10;22.45;;;;;;;;;;4972110;28;20735;-72
2021/12/06 00:23:51;;;;;;;23.83;21.40;;;;;;;;;;4975930;28;20042;-73
2021/12/06 00:26:17;;;;;;;27.65;23.48;;;;;;;;;;4982311;28;20038;-73
2021/12/06 00:28:46;;;;;;;29.15;22.73;;;;;;;;;;4953515;28;20050;-72
2021/12/06 00:31:12;;;;;;;25.40;22.73;;;;;;;;;;4972117;28;20039;-74
2021/12/06 00:33:40;;;;;;;24.00;21.10;;;;;;;;;;4982144;28;20031;-72
2021/12/06 00:36:15;;;;;;;24.17;21.70;;;;;;;;;;4959438;28;20027;-72
2021/12/06 00:38:44;;;;;;;23.05;20.75;;;;;;;;;;4970389;28;20062;-74
2021/12/06 00:41:11;;;;;;;;;;;;;;;;;;4968162;28;20072;-72
2021/12/06 00:43:36;;;;;;;24.98;19.80;;;;;;;;;;4976455;28;19964;-72
2021/12/06 00:46:02;;;;;;;25.50;21.30;;;;;;;;;;4972164;28;20196;-74
2021/12/06 00:48:28;;;;;;;21.67;19.45;;;;;;;;;;4951318;29;20114;-74
2021/12/06 00:50:53;;;;;;;22.88;20.58;;;;;;;;;;4964560;28;20035;-72
2021/12/06 00:53:20;;;;;;;23.27;20.80;;;;;;;;;;4956425;28;20414;-72
2021/12/06 00:55:46;;;;;;;23.63;21.23;;;;;;;;;;4952524;28;20517;-72
2021/12/06 00:58:12;;;;;;;21.70;19.60;;;;;;;;;;4935798;28;20038;-72
2021/12/06 01:00:44;;;;;;;21.40;19.25;;;;;;;;;;4981204;28;20093;-72
2021/12/06 01:03:17;;;;;;;20.58;18.58;;;;;;;;;;4968552;28;20053;-72
2021/12/06 01:05:45;;;;;;;21.63;19.38;;;;;;;;;;4955365;28;20035;-73
2021/12/06 01:08:11;;;;;;;22.08;18.73;;;;;;;;;;4972697;28;20073;-72
2021/12/06 01:10:38;;;;;;;21.13;19.05;;;;;;;;;;4977167;28;20058;-72
2021/12/06 01:13:04;;;;;;;21.00;18.48;;;;;;;;;;4971711;28;20043;-75
2021/12/06 01:15:31;;;;;;;20.85;18.95;;;;;;;;;;4970817;28;20109;-72
2021/12/06 01:17:59;;;;;;;22.45;20.25;;;;;;;;;;4963060;28;20092;-72
2021/12/06 01:20:29;;;;;;;20.58;18.63;;;;;;;;;;4961585;28;20041;-75
2021/12/06 01:23:02;;;;;;;20.98;19.00;;;;;;;;;;4947607;28;20450;-75
2021/12/06 01:25:39;;;;;;;21.23;19.17;;;;;;;;;;4961072;28;20049;-72
2021/12/06 01:28:37;;;;;;;20.52;18.52;;;;;;;;;;4975422;28;20495;-72
2021/12/06 01:31:32;;;;;;;19.65;17.70;;;;;;;;;;4953755;28;20042;-72
2021/12/06 01:41:57;;;;;;;19.90;17.85;;;;;;;;;;4962847;28;20109;-72
2021/12/06 01:44:29;;;;;;;19.17;17.17;;;;;;;;;;4972834;28;20053;-75
2021/12/06 01:47:01;;;;;;;19.80;17.95;;;;;;;;;;4966151;28;20038;-72
2021/12/06 01:49:36;;;;;;;19.90;17.98;;;;;;;;;;4936644;28;20104;-72
2021/12/06 01:52:08;;;;;;;20.60;18.65;;;;;;;;;;4957593;28;20039;-75
2021/12/06 01:54:34;;;;;;;24.02;20.30;;;;;;;;;;4961576;28;20043;-72
2021/12/06 01:57:01;;;;;;;23.25;20.77;;;;;;;;;;4950160;29;20054;-72
2021/12/06 01:59:27;;;;;;;24.70;21.48;;;;;;;;;;4952387;28;20038;-72
2021/12/06 02:01:53;;;;;;;22.45;20.08;;;;;;;;;;4971198;28;20080;-72
2021/12/06 02:04:20;;;;;;;24.67;21.98;;;;;;;;;;4956348;28;20042;-72
2021/12/06 02:06:46;;;;;;;22.25;20.08;;;;;;;;;;4952950;28;20041;-72
2021/12/06 02:09:17;;;;;;;26.08;21.42;;;;;;;;;;4951427;28;20027;-72
2021/12/06 02:11:44;;;;;;;22.95;20.05;;;;;;;;;;4966420;28;20410;-72
2021/12/06 02:16:58;;;;;;;24.30;21.80;;;;;;;;;;4969030;28;20129;-72
2021/12/06 02:19:30;;;;;;;26.55;20.48;;;;;;;;;;4968158;28;20032;-75
2021/12/06 02:21:57;;;;;;;24.63;21.08;;;;;;;;;;4952982;28;20034;-75
2021/12/06 02:24:22;;;;;;;22.77;20.40;;;;;;;;;;4953038;28;20037;-74
2021/12/06 02:26:51;;;;;;;23.98;20.45;;;;;;;;;;4969856;28;20537;-74
2021/12/06 02:29:17;;;;;;;22.27;20.15;;;;;;;;;;4962912;28;20114;-75
2021/12/06 02:31:43;;;;;;;22.40;20.23;;;;;;;;;;4949155;29;20482;-72
2021/12/06 02:34:08;;;;;;;22.40;19.70;;;;;;;;;;4948225;29;20046;-72
2021/12/06 02:36:35;;;;;;;22.85;20.08;;;;;;;;;;4957354;28;20505;-74
2021/12/06 02:39:02;;;;;;;21.13;19.10;;;;;;;;;;4951464;28;20038;-74
2021/12/06 02:41:29;;;;;;;20.23;18.45;;;;;;;;;;4952329;28;20046;-74
2021/12/06 02:43:55;;;;;;;22.40;20.10;;;;;;;;;;4963513;28;20042;-74
2021/12/06 02:46:22;;;;;;;23.27;19.65;;;;;;;;;;4968733;28;20038;-74
2021/12/06 02:48:49;;;;;;;21.38;19.35;;;;;;;;;;4936822;28;20430;-74
2021/12/06 02:51:16;;;;;;;21.10;18.95;;;;;;;;;;4951940;28;20035;-74
2021/12/06 02:53:42;;;;;;;21.80;19.30;;;;;;;;;;4983640;28;20038;-74
2021/12/06 02:56:28;;;;;;;22.55;20.05;;;;;;;;;;4956282;28;20482;-74
2021/12/06 02:58:56;;;;;;;22.25;19.90;;;;;;;;;;4958254;28;20482;-74
2021/12/06 03:01:30;;;;;;;23.17;20.83;;;;;;;;;;4971509;28;20042;-74
2021/12/06 03:03:56;;;;;;;23.38;20.90;;;;;;;;;;4960656;28;20110;-74
2021/12/06 03:06:25;;;;;;;25.00;20.48;;;;;;;;;;4953802;28;20470;-74
2021/12/06 03:08:59;;;;;;;24.13;20.60;;;;;;;;;;4967965;28;20039;-74
2021/12/06 03:11:29;;;;;;;27.08;20.80;;;;;;;;;;4977272;28;20034;-74
2021/12/06 03:13:56;;;;;;;22.60;20.30;;;;;;;;;;4949259;29;20077;-74
2021/12/06 03:16:22;;;;;;;22.10;19.90;;;;;;;;;;4949468;28;20067;-74
2021/12/06 03:18:50;;;;;;;22.85;20.55;;;;;;;;;;4953363;28;20058;-74
2021/12/06 03:21:17;;;;;;;21.97;19.87;;;;;;;;;;4959430;28;20049;-74
2021/12/06 03:23:43;;;;;;;22.30;19.92;;;;;;;;;;4949633;28;20388;-74
2021/12/06 03:26:09;;;;;;;20.90;19.00;;;;;;;;;;4944616;28;20105;-74
2021/12/06 03:28:38;;;;;;;20.33;18.40;;;;;;;;;;4957002;28;20084;-74
2021/12/06 03:31:06;;;;;;;20.25;18.27;;;;;;;;;;4965408;28;20038;-74
2021/12/06 03:33:35;;;;;;;19.83;17.98;;;;;;;;;;4951787;28;20559;-74
2021/12/06 03:36:03;;;;;;;22.42;19.23;;;;;;;;;;4959712;28;20046;-74
2021/12/06 03:38:29;;;;;;;19.85;17.95;;;;;;;;;;4961570;28;20125;-74
2021/12/06 03:40:55;;;;;;;20.80;18.60;;;;;;;;;;4948350;28;20122;-74
2021/12/06 03:43:24;;;;;;;22.23;19.88;;;;;;;;;;4971479;28;20042;-74
2021/12/06 03:45:51;;;;;;;20.60;18.60;;;;;;;;;;4965440;28;20596;-74
2021/12/06 03:48:17;;;;;;;21.48;19.25;;;;;;;;;;4980402;28;20544;-74
2021/12/06 03:50:45;;;;;;;20.88;18.85;;;;;;;;;;4931941;28;20038;-74
2021/12/06 03:53:11;;;;;;;20.40;18.45;;;;;;;;;;4965287;28;20041;-74
2021/12/06 03:55:37;;;;;;;21.08;18.85;;;;;;;;;;4951414;28;20518;-74
2021/12/06 03:58:04;;;;;;;20.00;18.15;;;;;;;;;;4951427;28;20043;-75
2021/12/06 04:00:30;;;;;;;21.30;19.05;;;;;;;;;;4953595;28;20137;-74
2021/12/06 04:02:57;;;;;;;23.05;20.65;;;;;;;;;;4962528;28;20046;-74
2021/12/06 04:05:23;;;;;;;22.52;20.10;;;;;;;;;;4966546;28;20030;-74
2021/12/06 04:07:49;;;;;;;20.67;18.67;;;;;;;;;;4950703;28;20145;-74
2021/12/06 04:10:15;;;;;;;21.27;19.27;;;;;;;;;;4971772;28;20515;-74
2021/12/06 04:12:41;;;;;;;21.58;18.90;;;;;;;;;;4954536;28;20110;-74
2021/12/06 04:15:10;;;;;;;19.85;18.05;;;;;;;;;;4933272;28;20066;-74
2021/12/06 04:17:38;;;;;;;20.70;18.60;;;;;;;;;;4949559;28;20041;-74
2021/12/06 04:20:07;;;;;;;21.10;18.90;;;;;;;;;;4966010;28;20109;-74
2021/12/06 04:22:34;;;;;;;20.58;18.58;;;;;;;;;;4956037;28;20574;-74
2021/12/06 04:25:02;;;;;;;23.92;18.15;;;;;;;;;;4951657;28;20038;-74
2021/12/06 04:27:29;;;;;;;19.73;17.90;;;;;;;;;;4951780;28;20457;-74
2021/12/06 04:29:55;;;;;;;21.10;18.90;;;;;;;;;;4961194;28;20038;-74
2021/12/06 04:32:22;;;;;;;20.58;18.40;;;;;;;;;;4969651;28;20402;-74
2021/12/06 04:34:48;;;;;;;20.95;18.77;;;;;;;;;;4966421;28;20041;-74
2021/12/06 04:37:15;;;;;;;21.42;19.20;;;;;;;;;;4954628;28;20049;-74
2021/12/06 04:39:42;;;;;;;21.40;19.17;;;;;;;;;;4951474;29;20086;-74
2021/12/06 04:42:09;;;;;;;23.27;18.52;;;;;;;;;;4953759;28;20062;-74
2021/12/06 04:44:36;;;;;;;21.23;19.30;;;;;;;;;;4965473;28;20049;-74
2021/12/06 04:47:04;;;;;;;20.23;18.35;;;;;;;;;;4954622;28;20112;-74
2021/12/06 04:49:31;;;;;;;22.15;19.95;;;;;;;;;;4952908;28;20563;-74
2021/12/06 04:52:01;;;;;;;22.00;19.83;;;;;;;;;;4959486;28;20054;-74
2021/12/06 04:54:33;;;;;;;23.00;20.58;;;;;;;;;;4955927;28;20093;-74
2021/12/06 04:57:11;;;;;;;21.48;19.27;;;;;;;;;;4951969;28;20065;-74
2021/12/06 04:59:41;;;;;;;23.38;20.83;;;;;;;;;;4959924;28;20030;-74
2021/12/06 05:02:13;;;;;;;21.35;19.23;;;;;;;;;;4942302;28;20078;-74
2021/12/06 05:04:43;;;;;;;21.13;19.10;;;;;;;;;;4967416;28;20069;-74
2021/12/06 05:07:16;;;;;;;27.75;20.45;;;;;;;;;;4970769;28;20458;-74
2021/12/06 05:09:43;;;;;;;20.40;18.40;;;;;;;;;;4957434;28;20047;-74
2021/12/06 05:12:14;;;;;;;21.75;19.75;;;;;;;;;;4946494;28;20406;-74
2021/12/06 05:14:41;;;;;;;22.25;20.00;;;;;;;;;;4956601;28;20497;-74
2021/12/06 05:17:07;;;;;;;22.23;20.00;;;;;;;;;;4965308;28;20062;-74
2021/12/06 05:19:35;;;;;;;21.80;19.70;;;;;;;;;;4961236;28;20039;-74
2021/12/06 05:22:01;;;;;;;23.17;20.17;;;;;;;;;;4971255;28;20054;-74
2021/12/06 05:24:27;;;;;;;23.38;19.85;;;;;;;;;;4959680;28;20053;-74
2021/12/06 05:26:53;;;;;;;22.85;20.52;;;;;;;;;;4976791;28;20034;-74
2021/12/06 05:29:28;;;;;;;28.25;22.38;;;;;;;;;;4954473;28;20039;-74
2021/12/06 05:31:56;;;;;;;25.55;22.73;;;;;;;;;;4950700;29;20042;-74
2021/12/06 05:34:29;;;;;;;24.80;22.33;;;;;;;;;;4979695;28;20043;-74
2021/12/06 05:36:56;;;;;;;27.02;22.73;;;;;;;;;;4967248;28;20061;-74
2021/12/06 05:39:22;;;;;;;31.63;24.35;;;;;;;;;;4951534;28;20090;-74
2021/12/06 05:41:47;;;;;;;27.15;23.30;;;;;;;;;;4976540;28;20666;-74
2021/12/06 05:44:13;;;;;;;27.92;23.52;;;;;;;;;;4988078;28;20069;-74
2021/12/06 05:46:38;;;;;;;32.97;24.75;;;;;;;;;;4971261;28;20402;-74
2021/12/06 05:49:04;;;;;;;31.10;25.50;;;;;;;;;;4971223;28;20038;-74
2021/12/06 05:51:30;;;;;;;30.90;25.15;;;;;;;;;;4973478;28;20042;-74
2021/12/06 05:53:55;;;;;;;31.23;25.45;;;;;;;;;;4976117;28;20039;-74
2021/12/06 05:56:21;;;;;;;31.00;25.52;;;;;;;;;;4971196;28;20042;-74
2021/12/06 05:58:47;;;;;;;34.72;25.27;;;;;;;;;;4982849;28;20077;-74
2021/12/06 06:01:14;;;;;;;32.28;26.42;;;;;;;;;;4974692;28;20030;-74
2021/12/06 06:03:40;;;;;;;40.40;27.23;;;;;;;;;;4974502;28;20030;-74
2021/12/06 06:06:05;;;;;;;31.65;25.02;;;;;;;;;;4976120;28;20118;-74
2021/12/06 06:08:31;;;;;;;35.35;26.67;;;;;;;;;;4970009;28;20125;-74
2021/12/06 06:10:57;;;;;;;39.42;26.80;;;;;;;;;;4970123;28;20045;-74
2021/12/06 06:13:23;;;;;;;31.63;25.45;;;;;;;;;;4969095;28;20117;-74
2021/12/06 06:15:51;;;;;;;31.20;25.02;;;;;;;;;;4975805;28;20042;-74
2021/12/06 06:18:18;;;;;;;32.35;26.25;;;;;;;;;;4971130;28;20049;-74
2021/12/06 06:20:48;;;;;;;36.13;26.85;;;;;;;;;;4969236;28;20551;-74
2021/12/06 06:23:14;;;;;;;34.75;27.83;;;;;;;;;;4976548;28;20036;-73
2021/12/06 06:25:40;;;;;;;33.03;26.80;;;;;;;;;;4975381;28;20046;-74
2021/12/06 06:28:06;;;;;;;33.88;25.30;;;;;;;;;;4970021;28;20035;-74
2021/12/06 06:30:32;;;;;;;29.13;24.00;;;;;;;;;;4971748;28;20039;-74
2021/12/06 06:32:58;;;;;;;34.60;23.63;;;;;;;;;;4972603;28;20038;-74
2021/12/06 06:35:24;;;;;;;32.20;25.02;;;;;;;;;;4970015;28;20038;-74
2021/12/06 06:37:50;;;;;;;33.20;25.67;;;;;;;;;;4969134;28;20470;-74
2021/12/06 06:40:16;;;;;;;29.55;24.45;;;;;;;;;;4980726;28;20121;-74
2021/12/06 06:42:43;;;;;;;33.83;24.90;;;;;;;;;;4977812;28;20394;-74
2021/12/06 06:45:12;;;;;;;33.67;25.33;;;;;;;;;;4969629;28;20038;-75
2021/12/06 06:47:38;;;;;;;34.20;26.80;;;;;;;;;;4974982;28;20039;-74
2021/12/06 06:50:04;;;;;;;34.28;25.92;;;;;;;;;;4979126;28;20042;-74
2021/12/06 06:52:30;;;;;;;34.08;26.45;;;;;;;;;;4967398;28;20042;-74
2021/12/06 06:54:56;;;;;;;36.72;26.88;;;;;;;;;;4972912;28;20049;-74
2021/12/06 06:57:22;;;;;;;38.78;27.23;;;;;;;;;;4977411;28;20422;-75
2021/12/06 06:59:48;;;;;;;37.17;27.42;;;;;;;;;;4968146;28;20111;-74
2021/12/06 07:02:14;;;;;;;43.03;29.42;;;;;;;;;;4966424;28;20042;-73
2021/12/06 07:04:40;;;;;;;43.80;30.27;;;;;;;;;;4967464;28;20659;-73
2021/12/06 07:07:06;;;;;;;44.20;28.70;;;;;;;;;;4971041;28;20050;-73
2021/12/06 07:09:31;;;;;;;53.25;33.35;;;;;;;;;;4968962;28;20525;-73
2021/12/06 07:11:59;;;;;;;48.75;31.52;;;;;;;;;;4969593;28;20089;-72
2021/12/06 07:14:25;;;;;;;47.60;31.83;;;;;;;;;;4968806;28;20038;-71
2021/12/06 07:16:50;;;;;;;48.45;33.90;;;;;;;;;;4973077;28;20533;-73
2021/12/06 07:19:17;;;;;;;53.58;32.58;;;;;;;;;;4968040;28;20031;-72
2021/12/06 07:21:43;;;;;;;49.40;32.72;;;;;;;;;;4967931;28;20042;-72
2021/12/06 07:24:08;;;;;;;47.03;29.95;;;;;;;;;;4957366;28;20041;-73
2021/12/06 07:26:34;;;;;;;48.95;31.33;;;;;;;;;;4972789;28;20482;-72
2021/12/06 07:29:01;;;;;;;50.83;31.10;;;;;;;;;;4968605;28;20041;-72
2021/12/06 07:31:27;;;;;;;46.47;31.02;;;;;;;;;;4973595;28;20042;-72
2021/12/06 07:33:53;;;;;;;47.85;31.02;;;;;;;;;;4973167;28;20042;-72
2021/12/06 07:36:21;;;;;;;45.42;28.85;;;;;;;;;;4974943;28;20479;-73
2021/12/06 07:38:47;;;;;;;42.53;28.10;;;;;;;;;;4950437;28;20070;-72
2021/12/06 07:41:17;;;;;;;43.53;28.30;;;;;;;;;;4977055;28;20109;-72
2021/12/06 07:43:43;;;;;;;51.67;31.20;;;;;;;;;;4973813;28;20070;-73
2021/12/06 07:46:09;;;;;;;50.85;31.63;;;;;;;;;;4958368;28;20062;-73
2021/12/06 07:48:36;;;;;;;54.42;30.83;;;;;;;;;;4969011;28;20057;-73
2021/12/06 07:51:02;;;;;;;52.67;32.50;;;;;;;;;;4968991;28;20057;-73
2021/12/06 07:53:29;;;;;;;56.58;31.58;;;;;;;;;;4969306;28;20121;-73
2021/12/06 07:55:56;;;;;;;52.35;29.70;;;;;;;;;;4967797;28;20042;-73
2021/12/06 07:58:22;;;;;;;43.38;27.88;;;;;;;;;;4969612;28;20071;-72
2021/12/06 08:00:49;;;;;;;47.28;30.38;;;;;;;;;;4968295;28;20031;-72
2021/12/06 08:03:17;;;;;;;43.88;29.42;;;;;;;;;;4966652;28;20401;-72
2021/12/06 08:05:46;;;;;;;43.40;29.85;;;;;;;;;;4967330;28;20597;-73
2021/12/06 08:08:22;;;;;;;55.22;31.58;;;;;;;;;;4969882;28;20038;-73
2021/12/06 08:10:51;;;;;;;47.78;31.05;;;;;;;;;;4971335;28;20093;-73
2021/12/06 08:13:21;;;;;;;51.75;32.63;;;;;;;;;;4976494;28;20034;-71
2021/12/06 08:15:48;;;;;;;58.15;32.78;;;;;;;;;;4970091;28;20042;-73
2021/12/06 08:18:14;;;;;;;54.75;31.15;;;;;;;;;;4972263;28;20039;-73
2021/12/06 08:20:41;;;;;;;47.45;29.30;;;;;;;;;;4939763;28;20464;-73
2021/12/06 08:23:07;;;;;;;47.40;31.90;;;;;;;;;;4977106;28;20038;-73
2021/12/06 08:25:34;;;;;;;53.42;32.05;;;;;;;;;;4973273;28;20031;-73
2021/12/06 08:27:59;;;;;;;53.85;32.05;;;;;;;;;;4969713;28;20041;-72
2021/12/06 08:30:26;;;;;;;50.17;33.63;;;;;;;;;;4972790;28;20035;-73
2021/12/06 08:32:59;;;;;;;50.70;31.58;;;;;;;;;;4985656;28;20044;-73
2021/12/06 08:35:26;;;;;;;53.95;34.17;;;;;;;;;;4985330;28;20090;-73
2021/12/06 08:37:54;;;;;;;56.05;32.95;;;;;;;;;;4970697;28;20047;-73
2021/12/06 08:40:20;;;;;;;49.85;32.22;;;;;;;;;;4973313;28;20391;-73
2021/12/06 08:42:46;;;;;;;52.17;32.67;;;;;;;;;;4979279;28;20038;-73
2021/12/06 08:45:12;;;;;;;55.30;33.38;;;;;;;;;;4969887;28;20663;-73
2021/12/06 08:47:41;;;;;;;44.53;29.55;;;;;;;;;;4973987;28;20030;-73
2021/12/06 08:50:11;;;;;;;48.50;32.08;;;;;;;;;;4984151;28;20481;-73
2021/12/06 08:52:38;;;;;;;44.47;28.13;;;;;;;;;;4971374;28;20139;-73
2021/12/06 08:55:06;;;;;;;45.47;29.55;;;;;;;;;;4970661;28;20121;-72
2021/12/06 08:57:32;;;;;;;41.63;28.75;;;;;;;;;;4967748;28;20247;-73
2021/12/06 08:59:57;;;;;;;37.70;26.52;;;;;;;;;;4977753;28;20030;-72
2021/12/06 09:02:23;;;;;;;45.70;28.33;;;;;;;;;;4958281;28;20038;-72
2021/12/06 09:04:49;;;;;;;41.60;25.55;;;;;;;;;;4978667;28;20027;-73
2021/12/06 09:07:15;;;;;;;41.30;26.58;;;;;;;;;;4965222;28;21506;-73
2021/12/06 09:09:46;;;;;;;36.30;24.63;;;;;;;;;;4961730;28;20066;-73
2021/12/06 09:12:25;;;;;;;40.65;27.60;;;;;;;;;;4973733;28;20454;-72
2021/12/06 09:14:52;;;;;;;39.95;27.45;;;;;;;;;;4969152;28;20066;-73
2021/12/06 09:17:20;;;;;;;38.50;26.60;;;;;;;;;;4973520;28;20341;-73
2021/12/06 09:19:46;;;;;;;38.78;26.70;;;;;;;;;;4969964;28;20090;-73
2021/12/06 09:22:12;;;;;;;35.40;25.40;;;;;;;;;;4970451;28;20047;-73
2021/12/06 09:24:38;;;;;;;37.15;24.15;;;;;;;;;;4967636;28;20494;-73
2021/12/06 09:27:04;;;;;;;35.67;25.23;;;;;;;;;;4979414;28;20421;-73
2021/12/06 09:29:32;;;;;;;33.95;24.80;;;;;;;;;;4981250;28;20043;-73
2021/12/06 09:31:59;;;;;;;29.75;23.63;;;;;;;;;;4976581;28;20034;-74
2021/12/06 09:34:27;;;;;;;37.80;26.05;;;;;;;;;;4979820;28;20041;-74
2021/12/06 09:36:54;;;;;;;31.80;23.98;;;;;;;;;;4977241;28;20116;-74
2021/12/06 09:39:20;;;;;;;42.53;25.13;;;;;;;;;;4974452;28;20085;-73
2021/12/06 09:41:46;;;;;;;41.47;26.05;;;;;;;;;;4977815;28;20031;-73
2021/12/06 09:44:13;;;;;;;37.00;26.85;;;;;;;;;;4975751;28;20477;-73
2021/12/06 09:46:39;;;;;;;41.85;27.35;;;;;;;;;;4976492;28;20271;-72
2021/12/06 09:49:09;;;;;;;38.25;24.95;;;;;;;;;;4978864;28;20074;-73
2021/12/06 09:51:36;;;;;;;40.67;27.88;;;;;;;;;;4981248;28;20041;-73
2021/12/06 09:54:02;;;;;;;29.83;21.98;;;;;;;;;;4977248;28;20042;-72
2021/12/06 09:56:35;;;;;;;35.03;24.38;;;;;;;;;;4977990;28;20142;-72
2021/12/06 09:59:06;;;;;;;31.95;23.52;;;;;;;;;;4979694;28;20034;-72
2021/12/06 10:01:38;;;;;;;31.00;22.30;;;;;;;;;;4982313;28;20256;-72
2021/12/06 10:04:07;;;;;;;38.92;24.08;;;;;;;;;;4978901;28;20097;-72
2021/12/06 10:06:33;;;;;;;36.28;23.15;;;;;;;;;;4976172;28;20041;-72
2021/12/06 10:09:01;;;;;;;29.27;22.85;;;;;;;;;;4977496;28;20110;-72
2021/12/06 10:11:27;;;;;;;31.02;23.33;;;;;;;;;;4972199;28;20058;-72
2021/12/06 10:13:55;;;;;;;27.92;22.45;;;;;;;;;;4970041;28;20058;-71
2021/12/06 10:16:22;;;;;;;25.98;21.40;;;;;;;;;;4970495;28;20493;-72
2021/12/06 10:18:48;;;;;;;28.88;21.77;;;;;;;;;;4975588;28;20035;-72
2021/12/06 10:21:15;;;;;;;32.40;22.15;;;;;;;;;;4969702;28;20126;-72
2021/12/06 10:23:42;;;;;;;28.10;22.35;;;;;;;;;;4970255;28;20061;-72
2021/12/06 10:26:11;;;;;;;27.42;21.55;;;;;;;;;;4955717;28;20046;-72
2021/12/06 10:28:39;;;;;;;31.05;22.95;;;;;;;;;;4969959;28;20254;-72
2021/12/06 10:31:08;;;;;;;25.35;21.40;;;;;;;;;;4969448;28;20511;-71
2021/12/06 10:33:36;;;;;;;23.90;21.25;;;;;;;;;;4971558;28;20042;-71
2021/12/06 10:36:09;;;;;;;24.58;20.73;;;;;;;;;;4972482;28;20042;-72
2021/12/06 10:38:38;;;;;;;25.25;20.38;;;;;;;;;;4969018;28;20117;-72
2021/12/06 10:41:07;;;;;;;21.48;18.70;;;;;;;;;;4969287;28;20110;-72
2021/12/06 10:43:34;;;;;;;22.75;19.35;;;;;;;;;;4968070;28;20034;-71
2021/12/06 10:46:01;;;;;;;24.88;18.70;;;;;;;;;;4975398;28;20501;-72
2021/12/06 10:48:29;;;;;;;20.50;18.05;;;;;;;;;;4969686;28;20117;-72
2021/12/06 10:51:10;;;;;;;21.92;18.33;;;;;;;;;;4971258;28;20355;-72
2021/12/06 10:53:45;;;;;;;22.35;19.77;;;;;;;;;;4974754;28;20089;-72
2021/12/06 10:56:21;;;;;;;18.85;17.02;;;;;;;;;;4969465;28;20038;-72
2021/12/06 10:58:50;;;;;;;18.67;16.83;;;;;;;;;;4963618;28;20121;-72
2021/12/06 11:01:21;;;;;;;18.80;16.98;;;;;;;;;;4977853;28;20283;-72
2021/12/06 11:03:50;;;;;;;87.72;31.38;;;;;;;;;;4969257;28;20043;-72
2021/12/06 11:06:29;;;;;;;19.35;17.35;;;;;;;;;;4968800;28;20373;-72
2021/12/06 11:08:57;;;;;;;21.42;17.95;;;;;;;;;;4973277;28;20064;-72
2021/12/06 11:11:27;;;;;;;19.60;17.60;;;;;;;;;;4971208;28;20034;-71
2021/12/06 11:13:58;;;;;;;18.38;16.58;;;;;;;;;;4969677;28;20161;-72
2021/12/06 11:16:36;;;;;;;31.95;21.25;;;;;;;;;;4967386;28;20035;-72
2021/12/06 11:19:11;;;;;;;18.38;16.48;;;;;;;;;;4960876;28;20054;-71
2021/12/06 11:21:58;;;;;;;18.35;16.40;;;;;;;;;;4969098;28;20038;-71
2021/12/06 11:24:40;;;;;;;19.38;17.40;;;;;;;;;;4968581;28;20031;-71
2021/12/06 11:27:26;;;;;;;19.58;17.58;;;;;;;;;;4968302;28;20030;-72
2021/12/06 11:29:57;;;;;;;20.73;18.63;;;;;;;;;;4968989;28;20510;-71
2021/12/06 11:32:34;;;;;;;19.02;17.00;;;;;;;;;;4969105;28;20121;-71
2021/12/06 11:35:06;;;;;;;19.85;17.80;;;;;;;;;;4969173;28;20038;-72
2021/12/06 11:37:42;;;;;;;22.20;19.95;;;;;;;;;;4962988;28;20045;-72
2021/12/06 11:40:40;;;;;;;19.85;17.85;;;;;;;;;;4967816;28;20042;-72
2021/12/06 11:43:10;;;;;;;19.73;17.40;;;;;;;;;;4926627;29;20130;-72
2021/12/06 11:45:43;;;;;;;18.08;16.20;;;;;;;;;;4915821;29;20166;-73
2021/12/06 11:48:30;;;;;;;21.40;19.20;;;;;;;;;;4920476;29;20105;-73
2021/12/06 11:51:00;;;;;;;22.80;19.08;;;;;;;;;;4924519;29;20043;-73
2021/12/06 11:53:38;;;;;;;21.70;19.42;;;;;;;;;;4922427;29;20067;-73
2021/12/06 11:56:12;;;;;;;19.33;17.27;;;;;;;;;;4929850;29;20154;-73
2021/12/06 11:58:40;;;;;;;19.88;17.88;;;;;;;;;;4928852;29;20146;-73
2021/12/06 12:01:15;;;;;;;20.50;17.97;;;;;;;;;;4903828;29;20648;-73
2021/12/06 12:03:43;;;;;;;17.85;16.25;;;;;;;;;;4935438;29;20724;-73
2021/12/06 12:06:21;;;;;;;18.58;16.88;;;;;;;;;;4930174;29;20056;-72
2021/12/06 12:08:47;;;;;;;19.25;17.17;;;;;;;;;;4910007;29;20171;-73
2021/12/06 12:11:12;;;;;;;18.50;16.90;;;;;;;;;;4929443;29;20047;-73
2021/12/06 12:13:38;;;;;;;18.83;16.92;;;;;;;;;;4923604;29;20480;-72
2021/12/06 12:16:07;;;;;;;18.30;16.80;;;;;;;;;;4912040;29;20036;-73
2021/12/06 12:18:36;;;;;;;17.77;16.08;;;;;;;;;;4945163;28;20078;-73
2021/12/06 12:21:03;;;;;;;;;;;;;;;;;;4966496;28;20039;-71
2021/12/06 12:23:32;;;;;;;17.83;16.17;;;;;;;;;;4967026;28;19918;-73
2021/12/06 12:26:06;;;;;;;17.13;15.68;;;;;;;;;;4963530;28;20050;-72
2021/12/06 12:28:39;;;;;;;17.50;15.90;;;;;;;;;;4967971;28;20043;-74
2021/12/06 12:31:09;;;;;;;16.63;15.13;;;;;;;;;;4948283;28;20039;-73
2021/12/06 12:33:36;;;;;;;16.67;15.18;;;;;;;;;;4967220;28;20494;-73
2021/12/06 12:36:09;;;;;;;17.27;15.68;;;;;;;;;;4965026;28;20130;-73
2021/12/06 12:38:37;;;;;;;17.90;16.10;;;;;;;;;;4971817;28;20070;-73
2021/12/06 12:41:09;;;;;;;18.05;16.25;;;;;;;;;;4966776;28;20505;-73
2021/12/06 12:43:41;;;;;;;17.33;15.75;;;;;;;;;;4966037;28;20126;-73
2021/12/06 12:46:15;;;;;;;16.73;15.10;;;;;;;;;;4967384;28;20039;-72
2021/12/06 12:48:48;;;;;;;16.08;14.60;;;;;;;;;;4965547;28;20045;-72
2021/12/06 12:51:18;;;;;;;18.15;16.13;;;;;;;;;;4966797;28;20376;-73
2021/12/06 12:53:47;;;;;;;16.75;15.13;;;;;;;;;;4968531;28;20035;-73
2021/12/06 12:56:35;;;;;;;16.42;14.80;;;;;;;;;;4966790;28;20047;-71
2021/12/06 12:59:27;;;;;;;16.92;15.25;;;;;;;;;;4963268;28;20038;-73
2021/12/06 13:02:19;;;;;;;15.77;14.40;;;;;;;;;;4972054;28;20034;-73
2021/12/06 13:04:57;;;;;;;18.38;16.45;;;;;;;;;;4970071;28;20049;-73
2021/12/06 13:07:50;;;;;;;17.60;16.05;;;;;;;;;;4969748;28;20452;-72
2021/12/06 13:10:21;;;;;;;15.63;14.32;;;;;;;;;;4957380;28;20086;-73
2021/12/06 13:12:57;;;;;;;16.60;14.85;;;;;;;;;;4970022;28;20035;-73
2021/12/06 13:15:52;;;;;;;19.30;15.80;;;;;;;;;;4959567;28;20077;-73
2021/12/06 13:18:34;;;;;;;18.45;16.55;;;;;;;;;;4969987;28;20534;-73
2021/12/06 13:21:30;;;;;;;17.30;15.48;;;;;;;;;;4965562;28;20041;-73
2021/12/06 13:24:13;;;;;;;15.18;13.95;;;;;;;;;;4947924;28;20461;-73
2021/12/06 13:26:51;;;;;;;14.88;13.65;;;;;;;;;;4970255;28;20062;-73
2021/12/06 13:29:27;;;;;;;15.57;14.13;;;;;;;;;;4976730;28;20406;-72
2021/12/06 13:31:54;;;;;;;15.43;14.13;;;;;;;;;;4969392;28;20047;-72
2021/12/06 13:34:29;;;;;;;15.02;13.88;;;;;;;;;;4969746;28;20157;-73
2021/12/06 13:37:00;;;;;;;16.67;14.70;;;;;;;;;;4969879;28;20042;-73
2021/12/06 13:39:34;;;;;;;15.35;14.00;;;;;;;;;;4969302;28;20026;-74
2021/12/06 13:42:37;;;;;;;17.98;16.23;;;;;;;;;;4962995;28;20072;-72
2021/12/06 13:45:06;;;;;;;20.13;16.60;;;;;;;;;;4985491;23;20051;-69
2021/12/06 13:47:32;;;;;;;17.02;15.52;;;;;;;;;;4992918;28;20485;-70
2021/12/06 13:50:00;;;;;;;16.15;14.52;;;;;;;;;;4987004;28;20038;-69
2021/12/06 13:52:41;;;;;;;16.75;15.30;;;;;;;;;;4986641;28;20035;-70
2021/12/06 13:55:16;;;;;;;15.82;14.27;;;;;;;;;;4994765;28;20034;-70
2021/12/06 13:57:44;;;;;;;15.98;14.35;;;;;;;;;;4977305;28;20042;-70
2021/12/06 14:00:11;;;;;;;16.88;15.15;;;;;;;;;;4974303;28;20496;-71
2021/12/06 14:02:37;;;;;;;15.70;14.25;;;;;;;;;;4984053;28;20374;-69
2021/12/06 14:05:04;;;;;;;14.55;13.38;;;;;;;;;;4981069;28;20061;-69
2021/12/06 14:07:30;;;;;;;16.00;14.45;;;;;;;;;;4981460;28;20042;-69
2021/12/06 14:09:58;;;;;;;14.93;13.40;;;;;;;;;;4994407;28;20559;-69
2021/12/06 14:12:28;;;;;;;15.60;14.40;;;;;;;;;;4993092;28;20403;-69
2021/12/06 14:15:01;;;;;;;17.08;15.38;;;;;;;;;;4973069;28;20037;-69
2021/12/06 14:17:27;;;;;;;16.15;14.73;;;;;;;;;;4983652;28;20380;-69
2021/12/06 14:19:52;;;;;;;12.95;12.00;;;;;;;;;;4990645;28;20109;-69
2021/12/06 14:22:22;;;;;;;13.15;12.13;;;;;;;;;;4951576;28;20318;-69
2021/12/06 14:24:49;;;;;;;12.73;11.65;;;;;;;;;;4968263;28;20039;-71
2021/12/06 14:27:16;;;;;;;12.02;11.13;;;;;;;;;;4982894;28;20046;-71
2021/12/06 14:29:48;;;;;;;12.48;11.68;;;;;;;;;;4948030;28;20114;-71
2021/12/06 14:32:14;;;;;;;13.80;12.50;;;;;;;;;;4973460;28;20664;-71
2021/12/06 14:34:42;;;;;;;13.25;12.25;;;;;;;;;;4982947;28;20510;-71
2021/12/06 14:37:12;;;;;;;14.20;12.77;;;;;;;;;;4971473;28;20472;-71
2021/12/06 14:39:40;;;;;;;13.70;12.40;;;;;;;;;;4984110;28;20412;-70
2021/12/06 14:42:11;;;;;;;14.82;13.65;;;;;;;;;;4978663;28;20544;-71